sensor_id;sensor_type;location;lat;lon;timestamp;P1;durP1;ratioP1;P2;durP2;ratioP2
9288;SDS011;4683;50.864;12.086;2023-07-13T00:01:58;3.07;;;2.00;;
9288;SDS011;4683;50.864;12.086;2023-07-13T00:04:35;2.17;;;1.83;;
9288;SDS011;4683;50.864;12.086;2023-07-13T00:07:16;3.10;;;1.80;;
9288;SDS011;4683;50.864;12.086;2023-07-13T00:09:46;4.90;;;1.90;;
9288;SDS011;4683;50.864;12.086;2023-07-13T00:12:22;3.07;;;1.70;;
9288;SDS011;4683;50.864;12.086;2023-07-13T00:18:05;2.40;;;2.10;;
9288;SDS011;4683;50.864;12.086;2023-07-13T00:20:35;2.97;;;2.07;;
9288;SDS011;4683;50.864;12.086;2023-07-13T00:23:08;1.83;;;1.70;;
9288;SDS011;4683;50.864;12.086;2023-07-13T00:25:38;1.60;;;1.43;;
9288;SDS011;4683;50.864;12.086;2023-07-13T00:28:07;2.03;;;1.70;;
9288;SDS011;4683;50.864;12.086;2023-07-13T00:30:36;2.87;;;1.60;;
9288;SDS011;4683;50.864;12.086;2023-07-13T00:33:05;2.47;;;1.50;;
9288;SDS011;4683;50.864;12.086;2023-07-13T00:35:46;2.83;;;1.50;;
9288;SDS011;4683;50.864;12.086;2023-07-13T00:38:15;3.30;;;1.80;;
9288;SDS011;4683;50.864;12.086;2023-07-13T00:40:45;3.47;;;1.67;;
9288;SDS011;4683;50.864;12.086;2023-07-13T00:43:17;3.63;;;1.50;;
9288;SDS011;4683;50.864;12.086;2023-07-13T00:48:48;2.47;;;1.67;;
9288;SDS011;4683;50.864;12.086;2023-07-13T00:51:23;2.57;;;2.10;;
9288;SDS011;4683;50.864;12.086;2023-07-13T00:54:06;1.90;;;1.70;;
9288;SDS011;4683;50.864;12.086;2023-07-13T00:56:40;2.63;;;1.73;;
9288;SDS011;4683;50.864;12.086;2023-07-13T00:59:12;1.80;;;1.70;;
9288;SDS011;4683;50.864;12.086;2023-07-13T01:01:44;3.63;;;1.67;;
9288;SDS011;4683;50.864;12.086;2023-07-13T01:04:14;2.10;;;1.90;;
9288;SDS011;4683;50.864;12.086;2023-07-13T01:06:44;1.70;;;1.60;;
9288;SDS011;4683;50.864;12.086;2023-07-13T01:09:14;2.00;;;1.60;;
9288;SDS011;4683;50.864;12.086;2023-07-13T01:11:43;4.80;;;1.93;;
9288;SDS011;4683;50.864;12.086;2023-07-13T01:14:13;2.27;;;1.80;;
9288;SDS011;4683;50.864;12.086;2023-07-13T01:16:48;1.97;;;1.63;;
9288;SDS011;4683;50.864;12.086;2023-07-13T01:19:26;2.43;;;1.63;;
9288;SDS011;4683;50.864;12.086;2023-07-13T01:22:07;4.30;;;1.70;;
9288;SDS011;4683;50.864;12.086;2023-07-13T01:24:39;2.60;;;1.60;;
9288;SDS011;4683;50.864;12.086;2023-07-13T01:27:30;2.60;;;2.10;;
9288;SDS011;4683;50.864;12.086;2023-07-13T01:30:01;2.00;;;1.80;;
9288;SDS011;4683;50.864;12.086;2023-07-13T01:32:31;2.43;;;1.63;;
9288;SDS011;4683;50.864;12.086;2023-07-13T01:35:01;3.77;;;1.70;;
9288;SDS011;4683;50.864;12.086;2023-07-13T01:37:31;2.10;;;1.60;;
9288;SDS011;4683;50.864;12.086;2023-07-13T01:40:04;2.00;;;1.80;;
9288;SDS011;4683;50.864;12.086;2023-07-13T01:42:36;2.93;;;1.57;;
9288;SDS011;4683;50.864;12.086;2023-07-13T01:45:15;2.00;;;1.80;;
9288;SDS011;4683;50.864;12.086;2023-07-13T01:47:53;2.13;;;1.83;;
9288;SDS011;4683;50.864;12.086;2023-07-13T01:50:41;3.17;;;1.87;;
9288;SDS011;4683;50.864;12.086;2023-07-13T01:53:30;4.07;;;1.83;;
9288;SDS011;4683;50.864;12.086;2023-07-13T01:56:18;2.77;;;1.73;;
9288;SDS011;4683;50.864;12.086;2023-07-13T01:58:58;3.47;;;1.97;;
9288;SDS011;4683;50.864;12.086;2023-07-13T02:01:29;2.33;;;1.83;;
9288;SDS011;4683;50.864;12.086;2023-07-13T02:03:57;1.93;;;1.57;;
9288;SDS011;4683;50.864;12.086;2023-07-13T02:06:27;2.40;;;1.50;;
9288;SDS011;4683;50.864;12.086;2023-07-13T02:08:58;3.00;;;2.67;;
9288;SDS011;4683;50.864;12.086;2023-07-13T02:11:26;2.37;;;2.17;;
9288;SDS011;4683;50.864;12.086;2023-07-13T02:13:58;3.93;;;2.00;;
9288;SDS011;4683;50.864;12.086;2023-07-13T02:16:27;1.67;;;1.53;;
9288;SDS011;4683;50.864;12.086;2023-07-13T02:18:55;2.87;;;1.90;;
9288;SDS011;4683;50.864;12.086;2023-07-13T02:21:23;2.93;;;1.93;;
9288;SDS011;4683;50.864;12.086;2023-07-13T02:23:52;2.80;;;2.00;;
9288;SDS011;4683;50.864;12.086;2023-07-13T02:26:22;2.27;;;1.87;;
9288;SDS011;4683;50.864;12.086;2023-07-13T02:28:50;3.47;;;1.90;;
9288;SDS011;4683;50.864;12.086;2023-07-13T02:31:18;2.03;;;1.70;;
9288;SDS011;4683;50.864;12.086;2023-07-13T02:33:46;3.13;;;1.93;;
9288;SDS011;4683;50.864;12.086;2023-07-13T02:36:15;1.87;;;1.77;;
9288;SDS011;4683;50.864;12.086;2023-07-13T02:38:44;1.90;;;1.80;;
9288;SDS011;4683;50.864;12.086;2023-07-13T02:41:12;2.80;;;1.80;;
9288;SDS011;4683;50.864;12.086;2023-07-13T02:43:41;1.97;;;1.87;;
9288;SDS011;4683;50.864;12.086;2023-07-13T02:46:09;2.10;;;1.90;;
9288;SDS011;4683;50.864;12.086;2023-07-13T02:48:38;3.33;;;2.20;;
9288;SDS011;4683;50.864;12.086;2023-07-13T02:51:06;2.53;;;2.17;;
9288;SDS011;4683;50.864;12.086;2023-07-13T02:53:34;4.20;;;2.10;;
9288;SDS011;4683;50.864;12.086;2023-07-13T02:56:02;4.03;;;2.10;;
9288;SDS011;4683;50.864;12.086;2023-07-13T02:58:31;5.20;;;2.20;;
9288;SDS011;4683;50.864;12.086;2023-07-13T03:01:07;4.20;;;2.23;;
9288;SDS011;4683;50.864;12.086;2023-07-13T03:03:37;3.73;;;2.13;;
9288;SDS011;4683;50.864;12.086;2023-07-13T03:06:05;4.07;;;2.40;;
9288;SDS011;4683;50.864;12.086;2023-07-13T03:08:36;4.47;;;2.40;;
9288;SDS011;4683;50.864;12.086;2023-07-13T03:11:05;2.57;;;2.33;;
9288;SDS011;4683;50.864;12.086;2023-07-13T03:13:36;2.70;;;2.30;;
9288;SDS011;4683;50.864;12.086;2023-07-13T03:16:07;4.80;;;2.33;;
9288;SDS011;4683;50.864;12.086;2023-07-13T03:18:36;4.17;;;2.70;;
9288;SDS011;4683;50.864;12.086;2023-07-13T03:21:05;2.30;;;2.10;;
9288;SDS011;4683;50.864;12.086;2023-07-13T03:23:33;2.67;;;2.47;;
9288;SDS011;4683;50.864;12.086;2023-07-13T03:26:02;3.27;;;1.70;;
9288;SDS011;4683;50.864;12.086;2023-07-13T03:28:35;5.30;;;2.20;;
9288;SDS011;4683;50.864;12.086;2023-07-13T03:31:05;4.50;;;2.30;;
9288;SDS011;4683;50.864;12.086;2023-07-13T03:33:36;2.80;;;2.37;;
9288;SDS011;4683;50.864;12.086;2023-07-13T03:36:05;4.10;;;2.30;;
9288;SDS011;4683;50.864;12.086;2023-07-13T03:38:35;4.00;;;2.10;;
9288;SDS011;4683;50.864;12.086;2023-07-13T03:41:03;3.90;;;2.10;;
9288;SDS011;4683;50.864;12.086;2023-07-13T03:43:31;2.93;;;2.40;;
9288;SDS011;4683;50.864;12.086;2023-07-13T03:45:59;4.17;;;2.00;;
9288;SDS011;4683;50.864;12.086;2023-07-13T03:48:28;3.03;;;2.30;;
9288;SDS011;4683;50.864;12.086;2023-07-13T03:50:56;3.63;;;2.13;;
9288;SDS011;4683;50.864;12.086;2023-07-13T03:53:24;3.20;;;2.37;;
9288;SDS011;4683;50.864;12.086;2023-07-13T03:55:53;3.53;;;2.20;;
9288;SDS011;4683;50.864;12.086;2023-07-13T03:58:25;2.97;;;2.57;;
9288;SDS011;4683;50.864;12.086;2023-07-13T04:00:56;2.93;;;2.30;;
9288;SDS011;4683;50.864;12.086;2023-07-13T04:03:25;3.27;;;2.30;;
9288;SDS011;4683;50.864;12.086;2023-07-13T04:05:56;2.23;;;2.03;;
9288;SDS011;4683;50.864;12.086;2023-07-13T04:08:25;4.77;;;2.57;;
9288;SDS011;4683;50.864;12.086;2023-07-13T04:10:54;4.13;;;2.37;;
9288;SDS011;4683;50.864;12.086;2023-07-13T04:13:24;4.17;;;2.67;;
9288;SDS011;4683;50.864;12.086;2023-07-13T04:15:52;4.17;;;2.70;;
9288;SDS011;4683;50.864;12.086;2023-07-13T04:18:21;5.30;;;2.60;;
9288;SDS011;4683;50.864;12.086;2023-07-13T04:20:49;5.33;;;2.70;;
9288;SDS011;4683;50.864;12.086;2023-07-13T04:23:19;8.17;;;3.30;;
9288;SDS011;4683;50.864;12.086;2023-07-13T04:29:53;6.73;;;2.63;;
9288;SDS011;4683;50.864;12.086;2023-07-13T04:32:23;4.10;;;2.40;;
9288;SDS011;4683;50.864;12.086;2023-07-13T04:34:52;5.37;;;2.60;;
9288;SDS011;4683;50.864;12.086;2023-07-13T04:37:25;3.23;;;2.10;;
9288;SDS011;4683;50.864;12.086;2023-07-13T04:39:57;5.17;;;2.70;;
9288;SDS011;4683;50.864;12.086;2023-07-13T04:42:29;4.43;;;2.50;;
9288;SDS011;4683;50.864;12.086;2023-07-13T04:45:03;4.90;;;2.20;;
9288;SDS011;4683;50.864;12.086;2023-07-13T04:47:33;2.33;;;2.13;;
9288;SDS011;4683;50.864;12.086;2023-07-13T04:50:01;3.87;;;2.60;;
9288;SDS011;4683;50.864;12.086;2023-07-13T04:52:32;5.57;;;2.50;;
9288;SDS011;4683;50.864;12.086;2023-07-13T04:55:02;3.33;;;2.33;;
9288;SDS011;4683;50.864;12.086;2023-07-13T04:57:31;3.07;;;2.37;;
9288;SDS011;4683;50.864;12.086;2023-07-13T05:00:00;3.30;;;2.50;;
9288;SDS011;4683;50.864;12.086;2023-07-13T05:02:32;4.37;;;2.30;;
9288;SDS011;4683;50.864;12.086;2023-07-13T05:05:01;3.60;;;2.63;;
9288;SDS011;4683;50.864;12.086;2023-07-13T05:07:30;3.40;;;2.90;;
9288;SDS011;4683;50.864;12.086;2023-07-13T05:09:59;3.13;;;2.07;;
9288;SDS011;4683;50.864;12.086;2023-07-13T05:12:32;4.47;;;2.30;;
9288;SDS011;4683;50.864;12.086;2023-07-13T05:15:01;3.57;;;2.20;;
9288;SDS011;4683;50.864;12.086;2023-07-13T05:17:33;3.73;;;2.00;;
9288;SDS011;4683;50.864;12.086;2023-07-13T05:20:05;3.43;;;2.20;;
9288;SDS011;4683;50.864;12.086;2023-07-13T05:22:35;2.73;;;2.27;;
9288;SDS011;4683;50.864;12.086;2023-07-13T05:25:06;2.83;;;2.60;;
9288;SDS011;4683;50.864;12.086;2023-07-13T05:27:40;4.50;;;2.30;;
9288;SDS011;4683;50.864;12.086;2023-07-13T05:30:13;2.40;;;2.20;;
9288;SDS011;4683;50.864;12.086;2023-07-13T05:32:41;3.37;;;2.60;;
9288;SDS011;4683;50.864;12.086;2023-07-13T05:35:09;3.73;;;1.97;;
9288;SDS011;4683;50.864;12.086;2023-07-13T05:37:38;4.33;;;2.03;;
9288;SDS011;4683;50.864;12.086;2023-07-13T05:40:09;5.30;;;2.50;;
9288;SDS011;4683;50.864;12.086;2023-07-13T05:42:38;3.50;;;2.27;;
9288;SDS011;4683;50.864;12.086;2023-07-13T05:45:07;3.00;;;2.20;;
9288;SDS011;4683;50.864;12.086;2023-07-13T05:47:36;3.63;;;2.10;;
9288;SDS011;4683;50.864;12.086;2023-07-13T05:50:05;5.43;;;2.27;;
9288;SDS011;4683;50.864;12.086;2023-07-13T05:52:34;3.50;;;2.30;;
9288;SDS011;4683;50.864;12.086;2023-07-13T05:55:03;4.97;;;2.30;;
9288;SDS011;4683;50.864;12.086;2023-07-13T05:57:34;3.43;;;2.60;;
9288;SDS011;4683;50.864;12.086;2023-07-13T06:00:02;3.97;;;2.70;;
9288;SDS011;4683;50.864;12.086;2023-07-13T06:02:32;2.73;;;2.43;;
9288;SDS011;4683;50.864;12.086;2023-07-13T06:05:00;5.93;;;2.50;;
9288;SDS011;4683;50.864;12.086;2023-07-13T06:07:29;3.10;;;2.20;;
9288;SDS011;4683;50.864;12.086;2023-07-13T06:09:58;2.83;;;2.43;;
9288;SDS011;4683;50.864;12.086;2023-07-13T06:12:26;4.37;;;2.37;;
9288;SDS011;4683;50.864;12.086;2023-07-13T06:14:56;4.40;;;2.40;;
9288;SDS011;4683;50.864;12.086;2023-07-13T06:17:25;3.83;;;2.10;;
9288;SDS011;4683;50.864;12.086;2023-07-13T06:19:54;3.77;;;1.97;;
9288;SDS011;4683;50.864;12.086;2023-07-13T06:22:22;2.60;;;2.30;;
9288;SDS011;4683;50.864;12.086;2023-07-13T06:24:51;3.57;;;2.47;;
9288;SDS011;4683;50.864;12.086;2023-07-13T06:27:20;4.00;;;2.63;;
9288;SDS011;4683;50.864;12.086;2023-07-13T06:29:49;2.43;;;2.23;;
9288;SDS011;4683;50.864;12.086;2023-07-13T06:32:19;7.23;;;4.30;;
9288;SDS011;4683;50.864;12.086;2023-07-13T06:34:47;5.57;;;3.40;;
9288;SDS011;4683;50.864;12.086;2023-07-13T06:37:18;5.07;;;2.87;;
9288;SDS011;4683;50.864;12.086;2023-07-13T06:39:46;27.67;;;14.70;;
9288;SDS011;4683;50.864;12.086;2023-07-13T06:42:15;30.60;;;16.97;;
9288;SDS011;4683;50.864;12.086;2023-07-13T06:44:44;11.20;;;5.87;;
9288;SDS011;4683;50.864;12.086;2023-07-13T06:47:13;3.50;;;2.70;;
9288;SDS011;4683;50.864;12.086;2023-07-13T06:49:42;6.73;;;2.40;;
9288;SDS011;4683;50.864;12.086;2023-07-13T06:52:11;4.47;;;2.60;;
9288;SDS011;4683;50.864;12.086;2023-07-13T06:54:39;4.07;;;2.90;;
9288;SDS011;4683;50.864;12.086;2023-07-13T06:57:08;6.13;;;2.93;;
9288;SDS011;4683;50.864;12.086;2023-07-13T06:59:37;4.33;;;2.67;;
9288;SDS011;4683;50.864;12.086;2023-07-13T07:02:06;4.17;;;2.20;;
9288;SDS011;4683;50.864;12.086;2023-07-13T07:04:39;4.40;;;2.13;;
9288;SDS011;4683;50.864;12.086;2023-07-13T07:07:09;3.50;;;2.40;;
9288;SDS011;4683;50.864;12.086;2023-07-13T07:09:37;6.53;;;2.57;;
9288;SDS011;4683;50.864;12.086;2023-07-13T07:12:06;4.57;;;2.80;;
9288;SDS011;4683;50.864;12.086;2023-07-13T07:14:35;4.27;;;2.50;;
9288;SDS011;4683;50.864;12.086;2023-07-13T07:17:03;5.60;;;2.53;;
9288;SDS011;4683;50.864;12.086;2023-07-13T07:19:32;5.90;;;2.73;;
9288;SDS011;4683;50.864;12.086;2023-07-13T07:22:03;4.20;;;2.73;;
9288;SDS011;4683;50.864;12.086;2023-07-13T07:24:32;4.43;;;2.73;;
9288;SDS011;4683;50.864;12.086;2023-07-13T07:27:01;5.80;;;2.47;;
9288;SDS011;4683;50.864;12.086;2023-07-13T07:29:29;5.43;;;2.97;;
9288;SDS011;4683;50.864;12.086;2023-07-13T07:31:58;4.53;;;2.80;;
9288;SDS011;4683;50.864;12.086;2023-07-13T07:34:26;6.07;;;2.70;;
9288;SDS011;4683;50.864;12.086;2023-07-13T07:36:56;4.70;;;2.60;;
9288;SDS011;4683;50.864;12.086;2023-07-13T07:39:28;3.50;;;2.60;;
9288;SDS011;4683;50.864;12.086;2023-07-13T07:41:58;6.37;;;2.77;;
9288;SDS011;4683;50.864;12.086;2023-07-13T07:44:26;5.47;;;2.60;;
9288;SDS011;4683;50.864;12.086;2023-07-13T07:46:55;4.73;;;2.80;;
9288;SDS011;4683;50.864;12.086;2023-07-13T07:49:23;3.50;;;2.63;;
9288;SDS011;4683;50.864;12.086;2023-07-13T07:51:51;3.77;;;2.40;;
9288;SDS011;4683;50.864;12.086;2023-07-13T07:54:20;5.47;;;2.60;;
9288;SDS011;4683;50.864;12.086;2023-07-13T07:56:48;4.23;;;2.70;;
9288;SDS011;4683;50.864;12.086;2023-07-13T07:59:18;5.50;;;2.97;;
9288;SDS011;4683;50.864;12.086;2023-07-13T08:01:47;4.70;;;2.50;;
9288;SDS011;4683;50.864;12.086;2023-07-13T08:04:16;4.33;;;2.90;;
9288;SDS011;4683;50.864;12.086;2023-07-13T08:06:45;3.83;;;2.67;;
9288;SDS011;4683;50.864;12.086;2023-07-13T08:09:13;6.33;;;3.10;;
9288;SDS011;4683;50.864;12.086;2023-07-13T08:11:42;4.90;;;3.03;;
9288;SDS011;4683;50.864;12.086;2023-07-13T08:14:10;3.67;;;2.43;;
9288;SDS011;4683;50.864;12.086;2023-07-13T08:16:40;4.20;;;2.83;;
9288;SDS011;4683;50.864;12.086;2023-07-13T08:19:08;3.37;;;2.30;;
9288;SDS011;4683;50.864;12.086;2023-07-13T08:21:37;6.40;;;2.73;;
9288;SDS011;4683;50.864;12.086;2023-07-13T08:24:05;2.77;;;2.27;;
9288;SDS011;4683;50.864;12.086;2023-07-13T08:26:34;7.03;;;2.80;;
9288;SDS011;4683;50.864;12.086;2023-07-13T08:29:03;5.97;;;2.40;;
9288;SDS011;4683;50.864;12.086;2023-07-13T08:31:31;4.90;;;2.23;;
9288;SDS011;4683;50.864;12.086;2023-07-13T08:34:01;2.47;;;2.27;;
9288;SDS011;4683;50.864;12.086;2023-07-13T08:36:30;4.23;;;2.10;;
9288;SDS011;4683;50.864;12.086;2023-07-13T08:38:59;3.00;;;2.00;;
9288;SDS011;4683;50.864;12.086;2023-07-13T08:41:27;4.23;;;2.43;;
9288;SDS011;4683;50.864;12.086;2023-07-13T08:43:58;4.30;;;2.30;;
9288;SDS011;4683;50.864;12.086;2023-07-13T08:46:28;2.53;;;2.07;;
9288;SDS011;4683;50.864;12.086;2023-07-13T08:49:05;4.33;;;2.27;;
9288;SDS011;4683;50.864;12.086;2023-07-13T08:51:41;3.87;;;2.63;;
9288;SDS011;4683;50.864;12.086;2023-07-13T08:54:19;4.37;;;2.50;;
9288;SDS011;4683;50.864;12.086;2023-07-13T08:56:55;3.53;;;2.07;;
9288;SDS011;4683;50.864;12.086;2023-07-13T08:59:24;3.40;;;2.37;;
9288;SDS011;4683;50.864;12.086;2023-07-13T09:02:04;4.10;;;2.30;;
9288;SDS011;4683;50.864;12.086;2023-07-13T09:04:53;3.03;;;1.80;;
9288;SDS011;4683;50.864;12.086;2023-07-13T09:07:29;4.13;;;2.13;;
9288;SDS011;4683;50.864;12.086;2023-07-13T09:10:14;2.30;;;1.73;;
9288;SDS011;4683;50.864;12.086;2023-07-13T09:12:51;2.80;;;2.17;;
9288;SDS011;4683;50.864;12.086;2023-07-13T09:15:35;3.27;;;2.00;;
9288;SDS011;4683;50.864;12.086;2023-07-13T09:18:08;2.70;;;1.70;;
9288;SDS011;4683;50.864;12.086;2023-07-13T09:20:44;2.20;;;2.00;;
9288;SDS011;4683;50.864;12.086;2023-07-13T09:23:20;5.20;;;2.60;;
9288;SDS011;4683;50.864;12.086;2023-07-13T09:25:51;2.30;;;1.93;;
9288;SDS011;4683;50.864;12.086;2023-07-13T09:28:26;3.80;;;1.93;;
9288;SDS011;4683;50.864;12.086;2023-07-13T09:30:58;2.97;;;2.30;;
9288;SDS011;4683;50.864;12.086;2023-07-13T09:33:31;2.73;;;2.47;;
9288;SDS011;4683;50.864;12.086;2023-07-13T09:36:05;3.30;;;1.90;;
9288;SDS011;4683;50.864;12.086;2023-07-13T09:38:52;3.53;;;2.20;;
9288;SDS011;4683;50.864;12.086;2023-07-13T09:41:27;3.67;;;1.93;;
9288;SDS011;4683;50.864;12.086;2023-07-13T09:44:08;2.00;;;1.80;;
9288;SDS011;4683;50.864;12.086;2023-07-13T09:46:38;2.93;;;1.67;;
9288;SDS011;4683;50.864;12.086;2023-07-13T09:49:13;2.40;;;2.03;;
9288;SDS011;4683;50.864;12.086;2023-07-13T09:51:44;2.60;;;2.40;;
9288;SDS011;4683;50.864;12.086;2023-07-13T09:54:18;2.93;;;2.17;;
9288;SDS011;4683;50.864;12.086;2023-07-13T09:56:53;6.23;;;2.60;;
9288;SDS011;4683;50.864;12.086;2023-07-13T09:59:23;3.47;;;2.13;;
9288;SDS011;4683;50.864;12.086;2023-07-13T10:01:56;2.37;;;2.10;;
9288;SDS011;4683;50.864;12.086;2023-07-13T10:04:27;3.10;;;2.40;;
9288;SDS011;4683;50.864;12.086;2023-07-13T10:07:06;2.63;;;2.20;;
9288;SDS011;4683;50.864;12.086;2023-07-13T10:09:36;2.07;;;1.87;;
9288;SDS011;4683;50.864;12.086;2023-07-13T10:12:12;4.07;;;2.20;;
9288;SDS011;4683;50.864;12.086;2023-07-13T10:14:44;2.70;;;2.43;;
9288;SDS011;4683;50.864;12.086;2023-07-13T10:17:13;2.57;;;2.03;;
9288;SDS011;4683;50.864;12.086;2023-07-13T10:19:46;3.00;;;1.70;;
9288;SDS011;4683;50.864;12.086;2023-07-13T10:22:19;3.13;;;2.20;;
9288;SDS011;4683;50.864;12.086;2023-07-13T10:24:53;2.13;;;1.83;;
9288;SDS011;4683;50.864;12.086;2023-07-13T10:27:23;2.60;;;2.03;;
9288;SDS011;4683;50.864;12.086;2023-07-13T10:30:01;3.80;;;1.90;;
9288;SDS011;4683;50.864;12.086;2023-07-13T10:32:36;3.00;;;2.10;;
9288;SDS011;4683;50.864;12.086;2023-07-13T10:35:05;2.37;;;2.03;;
9288;SDS011;4683;50.864;12.086;2023-07-13T10:37:41;2.17;;;1.83;;
9288;SDS011;4683;50.864;12.086;2023-07-13T10:40:18;1.97;;;1.87;;
9288;SDS011;4683;50.864;12.086;2023-07-13T10:42:56;3.20;;;2.40;;
9288;SDS011;4683;50.864;12.086;2023-07-13T10:45:28;2.43;;;1.70;;
9288;SDS011;4683;50.864;12.086;2023-07-13T10:48:02;3.27;;;1.73;;
9288;SDS011;4683;50.864;12.086;2023-07-13T10:50:33;2.47;;;1.60;;
9288;SDS011;4683;50.864;12.086;2023-07-13T10:53:17;2.50;;;1.93;;
9288;SDS011;4683;50.864;12.086;2023-07-13T10:55:55;2.97;;;2.00;;
9288;SDS011;4683;50.864;12.086;2023-07-13T10:58:28;3.10;;;1.90;;
9288;SDS011;4683;50.864;12.086;2023-07-13T11:01:07;4.83;;;2.63;;
9288;SDS011;4683;50.864;12.086;2023-07-13T11:03:38;2.30;;;1.70;;
9288;SDS011;4683;50.864;12.086;2023-07-13T11:06:17;2.67;;;2.07;;
9288;SDS011;4683;50.864;12.086;2023-07-13T11:09:19;2.97;;;1.77;;
9288;SDS011;4683;50.864;12.086;2023-07-13T11:12:02;2.67;;;1.70;;
9288;SDS011;4683;50.864;12.086;2023-07-13T11:14:43;2.00;;;1.73;;
9288;SDS011;4683;50.864;12.086;2023-07-13T11:17:38;3.00;;;1.90;;
9288;SDS011;4683;50.864;12.086;2023-07-13T11:20:21;3.00;;;1.90;;
9288;SDS011;4683;50.864;12.086;2023-07-13T11:23:09;2.77;;;1.37;;
9288;SDS011;4683;50.864;12.086;2023-07-13T11:25:55;2.57;;;1.37;;
9288;SDS011;4683;50.864;12.086;2023-07-13T11:28:26;2.20;;;1.27;;
9288;SDS011;4683;50.864;12.086;2023-07-13T11:31:02;3.33;;;1.40;;
9288;SDS011;4683;50.864;12.086;2023-07-13T11:33:49;2.73;;;1.43;;
9288;SDS011;4683;50.864;12.086;2023-07-13T11:36:24;1.27;;;1.10;;
9288;SDS011;4683;50.864;12.086;2023-07-13T11:39:01;1.23;;;1.10;;
9288;SDS011;4683;50.864;12.086;2023-07-13T11:41:45;1.40;;;1.30;;
9288;SDS011;4683;50.864;12.086;2023-07-13T11:44:19;0.80;;;0.80;;
9288;SDS011;4683;50.864;12.086;2023-07-13T11:46:49;0.90;;;0.90;;
9288;SDS011;4683;50.864;12.086;2023-07-13T11:49:21;1.10;;;1.00;;
9288;SDS011;4683;50.864;12.086;2023-07-13T11:51:52;0.97;;;0.90;;
9288;SDS011;4683;50.864;12.086;2023-07-13T11:54:25;1.03;;;0.90;;
9288;SDS011;4683;50.864;12.086;2023-07-13T11:56:58;1.77;;;1.00;;
9288;SDS011;4683;50.864;12.086;2023-07-13T11:59:32;1.47;;;1.17;;
9288;SDS011;4683;50.864;12.086;2023-07-13T12:02:08;1.43;;;0.93;;
9288;SDS011;4683;50.864;12.086;2023-07-13T12:04:46;1.87;;;1.30;;
9288;SDS011;4683;50.864;12.086;2023-07-13T12:07:18;1.10;;;0.97;;
9288;SDS011;4683;50.864;12.086;2023-07-13T12:09:47;1.13;;;1.10;;
9288;SDS011;4683;50.864;12.086;2023-07-13T12:12:19;3.03;;;1.13;;
9288;SDS011;4683;50.864;12.086;2023-07-13T12:14:50;1.17;;;1.07;;
9288;SDS011;4683;50.864;12.086;2023-07-13T12:17:21;1.10;;;0.80;;
9288;SDS011;4683;50.864;12.086;2023-07-13T12:19:51;1.97;;;1.40;;
9288;SDS011;4683;50.864;12.086;2023-07-13T12:22:20;2.90;;;1.13;;
9288;SDS011;4683;50.864;12.086;2023-07-13T12:24:52;2.93;;;1.13;;
9288;SDS011;4683;50.864;12.086;2023-07-13T12:27:23;1.47;;;1.00;;
9288;SDS011;4683;50.864;12.086;2023-07-13T12:29:57;1.57;;;1.10;;
9288;SDS011;4683;50.864;12.086;2023-07-13T12:32:28;1.47;;;1.07;;
9288;SDS011;4683;50.864;12.086;2023-07-13T12:34:57;1.33;;;1.23;;
9288;SDS011;4683;50.864;12.086;2023-07-13T12:37:41;1.90;;;1.00;;
9288;SDS011;4683;50.864;12.086;2023-07-13T12:40:13;1.77;;;0.90;;
9288;SDS011;4683;50.864;12.086;2023-07-13T12:42:46;1.83;;;1.20;;
9288;SDS011;4683;50.864;12.086;2023-07-13T12:45:18;1.17;;;1.07;;
9288;SDS011;4683;50.864;12.086;2023-07-13T12:47:52;0.70;;;0.70;;
9288;SDS011;4683;50.864;12.086;2023-07-13T12:50:30;2.50;;;1.07;;
9288;SDS011;4683;50.864;12.086;2023-07-13T12:53:05;1.60;;;1.10;;
9288;SDS011;4683;50.864;12.086;2023-07-13T12:55:40;1.83;;;0.97;;
9288;SDS011;4683;50.864;12.086;2023-07-13T12:58:16;1.10;;;1.00;;
9288;SDS011;4683;50.864;12.086;2023-07-13T13:00:49;1.67;;;1.20;;
9288;SDS011;4683;50.864;12.086;2023-07-13T13:03:22;0.80;;;0.80;;
9288;SDS011;4683;50.864;12.086;2023-07-13T13:05:57;1.23;;;0.90;;
9288;SDS011;4683;50.864;12.086;2023-07-13T13:08:29;1.30;;;0.80;;
9288;SDS011;4683;50.864;12.086;2023-07-13T13:10:58;1.43;;;0.70;;
9288;SDS011;4683;50.864;12.086;2023-07-13T13:13:28;1.10;;;1.10;;
9288;SDS011;4683;50.864;12.086;2023-07-13T13:16:00;0.70;;;0.70;;
9288;SDS011;4683;50.864;12.086;2023-07-13T13:18:31;1.60;;;1.20;;
9288;SDS011;4683;50.864;12.086;2023-07-13T13:21:01;1.43;;;1.03;;
9288;SDS011;4683;50.864;12.086;2023-07-13T13:23:30;1.13;;;1.03;;
9288;SDS011;4683;50.864;12.086;2023-07-13T13:25:58;1.73;;;0.77;;
9288;SDS011;4683;50.864;12.086;2023-07-13T13:28:28;1.57;;;0.90;;
9288;SDS011;4683;50.864;12.086;2023-07-13T13:30:58;3.20;;;1.40;;
9288;SDS011;4683;50.864;12.086;2023-07-13T13:33:27;1.30;;;0.93;;
9288;SDS011;4683;50.864;12.086;2023-07-13T13:35:56;1.13;;;1.03;;
9288;SDS011;4683;50.864;12.086;2023-07-13T13:38:25;1.60;;;0.77;;
9288;SDS011;4683;50.864;12.086;2023-07-13T13:40:55;1.30;;;1.20;;
9288;SDS011;4683;50.864;12.086;2023-07-13T13:43:24;1.47;;;0.80;;
9288;SDS011;4683;50.864;12.086;2023-07-13T13:45:55;1.33;;;0.83;;
9288;SDS011;4683;50.864;12.086;2023-07-13T13:48:26;1.10;;;0.97;;
9288;SDS011;4683;50.864;12.086;2023-07-13T13:50:59;0.60;;;0.60;;
9288;SDS011;4683;50.864;12.086;2023-07-13T13:53:39;1.10;;;1.00;;
9288;SDS011;4683;50.864;12.086;2023-07-13T13:56:08;1.40;;;0.97;;
9288;SDS011;4683;50.864;12.086;2023-07-13T13:58:38;1.10;;;0.90;;
9288;SDS011;4683;50.864;12.086;2023-07-13T14:01:10;1.10;;;1.00;;
9288;SDS011;4683;50.864;12.086;2023-07-13T14:03:43;1.77;;;1.10;;
9288;SDS011;4683;50.864;12.086;2023-07-13T14:06:14;1.37;;;1.30;;
9288;SDS011;4683;50.864;12.086;2023-07-13T14:08:43;1.87;;;0.90;;
9288;SDS011;4683;50.864;12.086;2023-07-13T14:11:13;1.90;;;1.07;;
9288;SDS011;4683;50.864;12.086;2023-07-13T14:13:48;2.07;;;1.20;;
9288;SDS011;4683;50.864;12.086;2023-07-13T14:16:21;1.20;;;1.10;;
9288;SDS011;4683;50.864;12.086;2023-07-13T14:18:53;1.50;;;1.10;;
9288;SDS011;4683;50.864;12.086;2023-07-13T14:21:26;1.77;;;1.10;;
9288;SDS011;4683;50.864;12.086;2023-07-13T14:23:56;1.53;;;0.90;;
9288;SDS011;4683;50.864;12.086;2023-07-13T14:26:26;2.17;;;1.00;;
9288;SDS011;4683;50.864;12.086;2023-07-13T14:28:56;2.03;;;1.30;;
9288;SDS011;4683;50.864;12.086;2023-07-13T14:31:27;1.40;;;0.83;;
9288;SDS011;4683;50.864;12.086;2023-07-13T14:33:56;3.17;;;1.20;;
9288;SDS011;4683;50.864;12.086;2023-07-13T14:36:26;1.80;;;1.30;;
9288;SDS011;4683;50.864;12.086;2023-07-13T14:38:58;1.50;;;1.20;;
9288;SDS011;4683;50.864;12.086;2023-07-13T14:41:38;2.13;;;1.23;;
9288;SDS011;4683;50.864;12.086;2023-07-13T14:44:14;2.47;;;0.80;;
9288;SDS011;4683;50.864;12.086;2023-07-13T14:46:44;1.50;;;1.10;;
9288;SDS011;4683;50.864;12.086;2023-07-13T14:49:23;0.70;;;0.70;;
9288;SDS011;4683;50.864;12.086;2023-07-13T14:51:56;1.17;;;1.00;;
9288;SDS011;4683;50.864;12.086;2023-07-13T14:54:28;1.83;;;1.13;;
9288;SDS011;4683;50.864;12.086;2023-07-13T14:56:56;3.60;;;1.03;;
9288;SDS011;4683;50.864;12.086;2023-07-13T14:59:28;2.10;;;1.43;;
9288;SDS011;4683;50.864;12.086;2023-07-13T15:01:56;1.20;;;1.07;;
9288;SDS011;4683;50.864;12.086;2023-07-13T15:04:25;2.80;;;1.10;;
9288;SDS011;4683;50.864;12.086;2023-07-13T15:06:54;1.90;;;1.40;;
9288;SDS011;4683;50.864;12.086;2023-07-13T15:09:25;0.97;;;0.97;;
9288;SDS011;4683;50.864;12.086;2023-07-13T15:11:54;1.93;;;1.63;;
9288;SDS011;4683;50.864;12.086;2023-07-13T15:14:23;1.00;;;1.00;;
9288;SDS011;4683;50.864;12.086;2023-07-13T15:16:54;1.47;;;1.10;;
9288;SDS011;4683;50.864;12.086;2023-07-13T15:19:23;2.30;;;1.50;;
9288;SDS011;4683;50.864;12.086;2023-07-13T15:21:52;1.43;;;0.83;;
9288;SDS011;4683;50.864;12.086;2023-07-13T15:24:24;1.07;;;0.93;;
9288;SDS011;4683;50.864;12.086;2023-07-13T15:26:53;1.10;;;0.70;;
9288;SDS011;4683;50.864;12.086;2023-07-13T15:29:22;1.07;;;0.83;;
9288;SDS011;4683;50.864;12.086;2023-07-13T15:31:50;2.97;;;1.40;;
9288;SDS011;4683;50.864;12.086;2023-07-13T15:34:20;0.80;;;0.80;;
9288;SDS011;4683;50.864;12.086;2023-07-13T15:36:53;2.10;;;1.17;;
9288;SDS011;4683;50.864;12.086;2023-07-13T15:39:22;0.80;;;0.80;;